createdAt,value
2019-05-20T00:00:10.387Z,1.13
2019-05-20T00:15:10.691Z,1.15
2019-05-20T00:30:11.310Z,1.27
2019-05-20T00:45:11.343Z,1.63
2019-05-20T01:00:11.442Z,1.34
2019-05-20T01:15:11.419Z,1.26
2019-05-20T01:30:12.365Z,1.12
2019-05-20T01:45:12.774Z,1.22
2019-05-20T02:00:03.009Z,1.46
2019-05-20T02:15:03.021Z,1.46
2019-05-20T02:30:03.536Z,1.31
2019-05-20T02:45:03.711Z,1.2
2019-05-20T03:00:03.650Z,1.5
2019-05-20T03:15:03.972Z,1.27
2019-05-20T03:30:07.250Z,1.2
2019-05-20T03:45:11.018Z,1.31
2019-05-20T04:00:12.129Z,1.45
2019-05-20T04:15:05.641Z,1.35
2019-05-20T04:30:08.498Z,1.4
2019-05-20T04:45:08.449Z,1.28
2019-05-20T05:00:06.381Z,1.23
2019-05-20T05:15:07.965Z,1.35
2019-05-20T05:30:09.951Z,1.41
2019-05-20T05:45:05.223Z,1.15
2019-05-20T06:00:05.918Z,1.19
2019-05-20T06:15:08.071Z,1.28
2019-05-20T06:30:11.754Z,1.22
2019-05-20T06:45:07.901Z,1.32
2019-05-20T07:00:10.483Z,1.39
2019-05-20T07:15:13.009Z,1.56
2019-05-20T07:30:03.982Z,1.51
2019-05-20T07:45:06.821Z,1.54
2019-05-20T08:00:09.720Z,1.55
2019-05-20T08:15:07.810Z,1.8
2019-05-20T08:30:03.537Z,1.65
2019-05-20T08:45:08.808Z,1.44
2019-05-20T09:00:04.450Z,1.28
2019-05-20T09:15:10.266Z,1.33
2019-05-20T09:30:03.344Z,1.56
2019-05-20T09:45:05.756Z,1.41
2019-05-20T10:00:06.297Z,1.42
2019-05-20T10:15:04.670Z,1.44
2019-05-20T10:30:03.617Z,1.55
2019-05-20T10:45:08.712Z,1.56
2019-05-20T11:00:03.957Z,1.62
2019-05-20T11:15:06.600Z,1.44
2019-05-20T11:30:03.462Z,1.45
2019-05-20T11:45:03.746Z,1.51
2019-05-20T12:00:09.462Z,1.26
2019-05-20T12:15:04.918Z,1.37
2019-05-20T12:30:06.991Z,1.26
2019-05-20T12:45:11.256Z,1.75
2019-05-20T13:00:03.562Z,1.46
2019-05-20T13:15:03.878Z,1.57
2019-05-20T13:30:06.509Z,1.54
2019-05-20T13:45:07.010Z,1.73
2019-05-20T14:00:07.948Z,1.5
2019-05-20T14:15:09.403Z,1.57
2019-05-20T14:30:12.022Z,1.46
2019-05-20T14:45:03.067Z,1.55
2019-05-20T15:00:06.899Z,1.86
2019-05-20T15:15:07.534Z,1.53
2019-05-20T15:30:07.842Z,1.36
2019-05-20T15:45:11.892Z,1.43
2019-05-20T16:00:05.857Z,1.74
2019-05-20T16:15:08.456Z,1.42
2019-05-20T16:30:11.782Z,1.37
2019-05-20T16:45:11.759Z,1.44
2019-05-20T17:00:10.121Z,1.53
2019-05-20T17:15:03.642Z,1.45
2019-05-20T17:30:04.635Z,1.22
2019-05-20T17:45:04.345Z,1.27
2019-05-20T18:00:04.474Z,1.36
2019-05-20T18:15:06.598Z,1.16
2019-05-20T18:30:12.606Z,1.08
2019-05-20T18:45:08.322Z,1.38
2019-05-20T19:00:12.028Z,1.2
2019-05-20T19:15:11.785Z,1.26
2019-05-20T19:30:07.253Z,1.05
2019-05-20T19:45:08.409Z,1.05
2019-05-20T20:00:08.671Z,1
2019-05-20T20:15:04.865Z,1.26
2019-05-20T20:30:05.769Z,1.02
2019-05-20T20:45:05.943Z,1.04
2019-05-20T21:00:09.569Z,0.91
2019-05-20T21:15:06.654Z,1.1
2019-05-20T21:30:10.111Z,0.96
2019-05-20T21:45:10.854Z,0.91
2019-05-20T22:00:10.714Z,0.93
2019-05-20T22:15:10.812Z,1.09
2019-05-20T22:30:11.044Z,1.02
2019-05-20T22:45:10.909Z,0.83
2019-05-20T23:00:10.941Z,0.87
2019-05-20T23:15:11.166Z,1.06
2019-05-20T23:30:11.546Z,1.05
2019-05-20T23:45:12.665Z,1
